sensor_id;sensor_type;location;lat;lon;timestamp;P1;durP1;ratioP1;P2;durP2;ratioP2
38089;SDS011;23904;52.322;10.232;2024-01-27T00:01:31;22.42;;;3.05;;
38089;SDS011;23904;52.322;10.232;2024-01-27T00:03:57;25.33;;;4.25;;
38089;SDS011;23904;52.322;10.232;2024-01-27T00:06:23;22.42;;;3.72;;
38089;SDS011;23904;52.322;10.232;2024-01-27T00:08:48;32.05;;;3.58;;
38089;SDS011;23904;52.322;10.232;2024-01-27T00:11:14;23.70;;;3.15;;
38089;SDS011;23904;52.322;10.232;2024-01-27T00:13:39;37.50;;;4.63;;
38089;SDS011;23904;52.322;10.232;2024-01-27T00:16:05;16.60;;;3.38;;
38089;SDS011;23904;52.322;10.232;2024-01-27T00:18:31;19.40;;;2.90;;
38089;SDS011;23904;52.322;10.232;2024-01-27T00:20:57;14.77;;;2.95;;
38089;SDS011;23904;52.322;10.232;2024-01-27T00:23:22;26.45;;;3.78;;
38089;SDS011;23904;52.322;10.232;2024-01-27T00:25:48;15.95;;;3.38;;
38089;SDS011;23904;52.322;10.232;2024-01-27T00:28:14;19.25;;;2.90;;
38089;SDS011;23904;52.322;10.232;2024-01-27T00:30:39;20.02;;;2.88;;
38089;SDS011;23904;52.322;10.232;2024-01-27T00:33:05;23.17;;;3.53;;
38089;SDS011;23904;52.322;10.232;2024-01-27T00:35:30;25.13;;;3.30;;
38089;SDS011;23904;52.322;10.232;2024-01-27T00:37:56;30.08;;;4.05;;
38089;SDS011;23904;52.322;10.232;2024-01-27T00:40:21;27.15;;;4.93;;
38089;SDS011;23904;52.322;10.232;2024-01-27T00:42:47;25.92;;;3.85;;
38089;SDS011;23904;52.322;10.232;2024-01-27T00:45:13;22.15;;;3.60;;
38089;SDS011;23904;52.322;10.232;2024-01-27T00:47:39;29.70;;;3.45;;
38089;SDS011;23904;52.322;10.232;2024-01-27T00:50:04;24.63;;;3.67;;
38089;SDS011;23904;52.322;10.232;2024-01-27T00:52:31;23.75;;;3.60;;
38089;SDS011;23904;52.322;10.232;2024-01-27T00:54:56;27.70;;;3.72;;
38089;SDS011;23904;52.322;10.232;2024-01-27T00:57:22;21.30;;;2.42;;
38089;SDS011;23904;52.322;10.232;2024-01-27T00:59:47;29.25;;;4.65;;
38089;SDS011;23904;52.322;10.232;2024-01-27T01:02:13;16.27;;;2.45;;
38089;SDS011;23904;52.322;10.232;2024-01-27T01:04:38;21.63;;;3.33;;
38089;SDS011;23904;52.322;10.232;2024-01-27T01:07:04;28.70;;;4.45;;
38089;SDS011;23904;52.322;10.232;2024-01-27T01:09:29;23.83;;;2.90;;
38089;SDS011;23904;52.322;10.232;2024-01-27T01:11:55;19.02;;;4.15;;
38089;SDS011;23904;52.322;10.232;2024-01-27T01:14:20;23.00;;;3.83;;
38089;SDS011;23904;52.322;10.232;2024-01-27T01:16:46;26.75;;;3.70;;
38089;SDS011;23904;52.322;10.232;2024-01-27T01:19:11;31.42;;;4.45;;
38089;SDS011;23904;52.322;10.232;2024-01-27T01:21:37;20.30;;;4.70;;
38089;SDS011;23904;52.322;10.232;2024-01-27T01:24:02;28.60;;;3.50;;
38089;SDS011;23904;52.322;10.232;2024-01-27T01:26:28;19.38;;;4.15;;
38089;SDS011;23904;52.322;10.232;2024-01-27T01:28:54;23.25;;;4.07;;
38089;SDS011;23904;52.322;10.232;2024-01-27T01:31:19;24.60;;;4.00;;
38089;SDS011;23904;52.322;10.232;2024-01-27T01:33:45;26.42;;;4.05;;
38089;SDS011;23904;52.322;10.232;2024-01-27T01:36:10;23.38;;;3.85;;
38089;SDS011;23904;52.322;10.232;2024-01-27T01:38:36;32.70;;;4.68;;
38089;SDS011;23904;52.322;10.232;2024-01-27T01:41:01;26.70;;;4.75;;
38089;SDS011;23904;52.322;10.232;2024-01-27T01:43:27;24.45;;;3.83;;
38089;SDS011;23904;52.322;10.232;2024-01-27T01:45:52;28.17;;;4.07;;
38089;SDS011;23904;52.322;10.232;2024-01-27T01:48:19;38.05;;;7.55;;
38089;SDS011;23904;52.322;10.232;2024-01-27T01:50:45;25.58;;;3.80;;
38089;SDS011;23904;52.322;10.232;2024-01-27T01:53:12;33.47;;;3.72;;
38089;SDS011;23904;52.322;10.232;2024-01-27T01:55:38;27.83;;;5.78;;
38089;SDS011;23904;52.322;10.232;2024-01-27T01:58:05;25.33;;;4.65;;
38089;SDS011;23904;52.322;10.232;2024-01-27T02:00:31;30.38;;;5.47;;
38089;SDS011;23904;52.322;10.232;2024-01-27T02:02:57;29.63;;;3.95;;
38089;SDS011;23904;52.322;10.232;2024-01-27T02:05:23;19.58;;;3.80;;
38089;SDS011;23904;52.322;10.232;2024-01-27T02:07:49;25.75;;;3.78;;
38089;SDS011;23904;52.322;10.232;2024-01-27T02:10:16;25.02;;;4.13;;
38089;SDS011;23904;52.322;10.232;2024-01-27T02:12:43;19.00;;;2.92;;
38089;SDS011;23904;52.322;10.232;2024-01-27T02:15:09;22.20;;;5.20;;
38089;SDS011;23904;52.322;10.232;2024-01-27T02:17:39;24.98;;;4.20;;
38089;SDS011;23904;52.322;10.232;2024-01-27T02:20:06;21.20;;;4.25;;
38089;SDS011;23904;52.322;10.232;2024-01-27T02:22:33;31.42;;;3.85;;
38089;SDS011;23904;52.322;10.232;2024-01-27T02:24:59;31.58;;;4.15;;
38089;SDS011;23904;52.322;10.232;2024-01-27T02:27:25;41.03;;;4.47;;
38089;SDS011;23904;52.322;10.232;2024-01-27T02:29:50;16.73;;;4.78;;
38089;SDS011;23904;52.322;10.232;2024-01-27T02:32:16;29.42;;;3.85;;
38089;SDS011;23904;52.322;10.232;2024-01-27T02:34:41;27.73;;;4.55;;
38089;SDS011;23904;52.322;10.232;2024-01-27T02:37:07;23.38;;;3.90;;
38089;SDS011;23904;52.322;10.232;2024-01-27T02:39:32;25.50;;;3.30;;
38089;SDS011;23904;52.322;10.232;2024-01-27T02:41:58;33.28;;;5.00;;
38089;SDS011;23904;52.322;10.232;2024-01-27T02:44:23;29.55;;;4.18;;
38089;SDS011;23904;52.322;10.232;2024-01-27T02:46:49;27.73;;;3.67;;
38089;SDS011;23904;52.322;10.232;2024-01-27T02:49:14;35.15;;;4.43;;
38089;SDS011;23904;52.322;10.232;2024-01-27T02:51:40;27.63;;;3.83;;
38089;SDS011;23904;52.322;10.232;2024-01-27T02:54:05;28.23;;;4.68;;
38089;SDS011;23904;52.322;10.232;2024-01-27T02:56:31;31.05;;;4.13;;
38089;SDS011;23904;52.322;10.232;2024-01-27T02:58:56;25.70;;;4.28;;
38089;SDS011;23904;52.322;10.232;2024-01-27T03:01:22;29.80;;;6.03;;
38089;SDS011;23904;52.322;10.232;2024-01-27T03:03:47;24.83;;;3.10;;
38089;SDS011;23904;52.322;10.232;2024-01-27T03:06:13;25.10;;;3.28;;
38089;SDS011;23904;52.322;10.232;2024-01-27T03:08:38;30.73;;;4.10;;
38089;SDS011;23904;52.322;10.232;2024-01-27T03:11:04;32.22;;;4.53;;
38089;SDS011;23904;52.322;10.232;2024-01-27T03:13:29;20.05;;;3.38;;
38089;SDS011;23904;52.322;10.232;2024-01-27T03:15:55;49.88;;;5.82;;
38089;SDS011;23904;52.322;10.232;2024-01-27T03:18:21;32.42;;;3.97;;
38089;SDS011;23904;52.322;10.232;2024-01-27T03:20:46;35.20;;;3.88;;
38089;SDS011;23904;52.322;10.232;2024-01-27T03:23:12;26.73;;;4.18;;
38089;SDS011;23904;52.322;10.232;2024-01-27T03:25:38;33.08;;;5.50;;
38089;SDS011;23904;52.322;10.232;2024-01-27T03:28:03;29.30;;;4.90;;
38089;SDS011;23904;52.322;10.232;2024-01-27T03:30:29;27.55;;;4.43;;
38089;SDS011;23904;52.322;10.232;2024-01-27T03:32:55;34.80;;;4.07;;
38089;SDS011;23904;52.322;10.232;2024-01-27T03:35:20;20.05;;;3.22;;
38089;SDS011;23904;52.322;10.232;2024-01-27T03:37:45;34.63;;;3.80;;
38089;SDS011;23904;52.322;10.232;2024-01-27T03:40:11;17.75;;;3.28;;
38089;SDS011;23904;52.322;10.232;2024-01-27T03:42:37;25.30;;;3.70;;
38089;SDS011;23904;52.322;10.232;2024-01-27T03:45:03;32.03;;;4.35;;
38089;SDS011;23904;52.322;10.232;2024-01-27T03:47:28;31.70;;;4.18;;
38089;SDS011;23904;52.322;10.232;2024-01-27T03:49:54;23.42;;;3.72;;
38089;SDS011;23904;52.322;10.232;2024-01-27T03:52:19;32.75;;;3.92;;
38089;SDS011;23904;52.322;10.232;2024-01-27T03:54:45;28.05;;;3.47;;
38089;SDS011;23904;52.322;10.232;2024-01-27T03:57:10;23.23;;;4.30;;
38089;SDS011;23904;52.322;10.232;2024-01-27T03:59:36;28.48;;;4.07;;
38089;SDS011;23904;52.322;10.232;2024-01-27T04:02:01;27.20;;;4.43;;
38089;SDS011;23904;52.322;10.232;2024-01-27T04:04:27;27.23;;;3.20;;
38089;SDS011;23904;52.322;10.232;2024-01-27T04:06:53;37.63;;;5.53;;
38089;SDS011;23904;52.322;10.232;2024-01-27T04:09:18;28.65;;;5.57;;
38089;SDS011;23904;52.322;10.232;2024-01-27T04:11:44;41.38;;;5.25;;
38089;SDS011;23904;52.322;10.232;2024-01-27T04:14:09;38.38;;;6.35;;
38089;SDS011;23904;52.322;10.232;2024-01-27T04:16:35;36.78;;;4.05;;
38089;SDS011;23904;52.322;10.232;2024-01-27T04:19:00;25.52;;;4.53;;
38089;SDS011;23904;52.322;10.232;2024-01-27T04:21:26;22.65;;;5.00;;
38089;SDS011;23904;52.322;10.232;2024-01-27T04:23:51;20.90;;;4.28;;
38089;SDS011;23904;52.322;10.232;2024-01-27T04:26:17;31.90;;;4.50;;
38089;SDS011;23904;52.322;10.232;2024-01-27T04:28:42;26.65;;;4.22;;
38089;SDS011;23904;52.322;10.232;2024-01-27T04:31:08;28.27;;;4.95;;
38089;SDS011;23904;52.322;10.232;2024-01-27T04:33:34;40.08;;;5.32;;
38089;SDS011;23904;52.322;10.232;2024-01-27T04:35:59;27.15;;;4.82;;
38089;SDS011;23904;52.322;10.232;2024-01-27T04:38:25;25.02;;;3.83;;
38089;SDS011;23904;52.322;10.232;2024-01-27T04:40:50;40.17;;;4.05;;
38089;SDS011;23904;52.322;10.232;2024-01-27T04:43:17;24.77;;;3.65;;
38089;SDS011;23904;52.322;10.232;2024-01-27T04:45:45;28.65;;;4.95;;
38089;SDS011;23904;52.322;10.232;2024-01-27T04:48:12;26.42;;;5.32;;
38089;SDS011;23904;52.322;10.232;2024-01-27T04:50:37;21.15;;;3.90;;
38089;SDS011;23904;52.322;10.232;2024-01-27T04:53:03;28.15;;;4.30;;
38089;SDS011;23904;52.322;10.232;2024-01-27T04:55:29;25.05;;;4.07;;
38089;SDS011;23904;52.322;10.232;2024-01-27T04:57:54;32.47;;;8.68;;
38089;SDS011;23904;52.322;10.232;2024-01-27T05:00:20;28.65;;;4.65;;
38089;SDS011;23904;52.322;10.232;2024-01-27T05:02:46;27.25;;;3.67;;
38089;SDS011;23904;52.322;10.232;2024-01-27T05:05:11;24.05;;;5.15;;
38089;SDS011;23904;52.322;10.232;2024-01-27T05:07:40;26.33;;;4.93;;
38089;SDS011;23904;52.322;10.232;2024-01-27T05:10:05;25.67;;;4.15;;
38089;SDS011;23904;52.322;10.232;2024-01-27T05:12:35;22.83;;;3.47;;
38089;SDS011;23904;52.322;10.232;2024-01-27T05:15:01;24.02;;;3.75;;
38089;SDS011;23904;52.322;10.232;2024-01-27T05:17:26;17.23;;;3.55;;
38089;SDS011;23904;52.322;10.232;2024-01-27T05:19:52;32.72;;;4.38;;
38089;SDS011;23904;52.322;10.232;2024-01-27T05:22:17;25.23;;;3.75;;
38089;SDS011;23904;52.322;10.232;2024-01-27T05:24:43;25.50;;;5.13;;
38089;SDS011;23904;52.322;10.232;2024-01-27T05:27:08;23.88;;;3.75;;
38089;SDS011;23904;52.322;10.232;2024-01-27T05:29:36;19.13;;;3.67;;
38089;SDS011;23904;52.322;10.232;2024-01-27T05:32:02;22.92;;;3.78;;
38089;SDS011;23904;52.322;10.232;2024-01-27T05:34:28;21.15;;;3.45;;
38089;SDS011;23904;52.322;10.232;2024-01-27T05:36:54;19.33;;;3.30;;
38089;SDS011;23904;52.322;10.232;2024-01-27T05:39:19;18.30;;;3.30;;
38089;SDS011;23904;52.322;10.232;2024-01-27T05:41:45;38.00;;;5.65;;
38089;SDS011;23904;52.322;10.232;2024-01-27T05:44:10;26.75;;;4.25;;
38089;SDS011;23904;52.322;10.232;2024-01-27T05:46:36;26.38;;;3.38;;
38089;SDS011;23904;52.322;10.232;2024-01-27T05:49:01;18.35;;;3.83;;
38089;SDS011;23904;52.322;10.232;2024-01-27T05:51:28;21.67;;;3.78;;
38089;SDS011;23904;52.322;10.232;2024-01-27T05:53:55;12.65;;;3.15;;
38089;SDS011;23904;52.322;10.232;2024-01-27T05:56:21;19.90;;;3.45;;
38089;SDS011;23904;52.322;10.232;2024-01-27T05:58:47;21.45;;;3.10;;
38089;SDS011;23904;52.322;10.232;2024-01-27T06:01:13;17.77;;;4.05;;
38089;SDS011;23904;52.322;10.232;2024-01-27T06:03:42;21.88;;;4.00;;
38089;SDS011;23904;52.322;10.232;2024-01-27T06:06:08;24.67;;;3.90;;
38089;SDS011;23904;52.322;10.232;2024-01-27T06:08:33;20.27;;;3.60;;
38089;SDS011;23904;52.322;10.232;2024-01-27T06:10:59;29.92;;;6.20;;
38089;SDS011;23904;52.322;10.232;2024-01-27T06:13:25;25.27;;;6.93;;
38089;SDS011;23904;52.322;10.232;2024-01-27T06:15:50;36.28;;;6.00;;
38089;SDS011;23904;52.322;10.232;2024-01-27T06:18:16;27.23;;;5.40;;
38089;SDS011;23904;52.322;10.232;2024-01-27T06:20:41;24.60;;;4.85;;
38089;SDS011;23904;52.322;10.232;2024-01-27T06:23:07;34.88;;;5.13;;
38089;SDS011;23904;52.322;10.232;2024-01-27T06:25:33;32.75;;;4.80;;
38089;SDS011;23904;52.322;10.232;2024-01-27T06:27:59;28.10;;;4.70;;
38089;SDS011;23904;52.322;10.232;2024-01-27T06:30:25;26.05;;;5.40;;
38089;SDS011;23904;52.322;10.232;2024-01-27T06:32:50;34.35;;;4.80;;
38089;SDS011;23904;52.322;10.232;2024-01-27T06:35:16;24.05;;;5.50;;
38089;SDS011;23904;52.322;10.232;2024-01-27T06:37:42;22.05;;;5.78;;
38089;SDS011;23904;52.322;10.232;2024-01-27T06:40:07;34.92;;;5.95;;
38089;SDS011;23904;52.322;10.232;2024-01-27T06:42:36;30.70;;;5.25;;
38089;SDS011;23904;52.322;10.232;2024-01-27T06:45:03;22.60;;;5.07;;
38089;SDS011;23904;52.322;10.232;2024-01-27T06:47:29;26.75;;;5.25;;
38089;SDS011;23904;52.322;10.232;2024-01-27T06:49:54;22.80;;;5.43;;
38089;SDS011;23904;52.322;10.232;2024-01-27T06:52:20;20.77;;;4.35;;
38089;SDS011;23904;52.322;10.232;2024-01-27T06:54:46;29.85;;;5.80;;
38089;SDS011;23904;52.322;10.232;2024-01-27T06:57:17;19.77;;;4.90;;
38089;SDS011;23904;52.322;10.232;2024-01-27T07:02:16;22.17;;;5.90;;
38089;SDS011;23904;52.322;10.232;2024-01-27T07:04:44;24.83;;;5.68;;
38089;SDS011;23904;52.322;10.232;2024-01-27T07:07:09;25.30;;;5.13;;
38089;SDS011;23904;52.322;10.232;2024-01-27T07:09:34;29.50;;;5.30;;
38089;SDS011;23904;52.322;10.232;2024-01-27T07:12:00;22.23;;;4.97;;
38089;SDS011;23904;52.322;10.232;2024-01-27T07:14:25;33.15;;;5.55;;
38089;SDS011;23904;52.322;10.232;2024-01-27T07:16:51;22.15;;;5.78;;
38089;SDS011;23904;52.322;10.232;2024-01-27T07:19:16;30.60;;;5.60;;
38089;SDS011;23904;52.322;10.232;2024-01-27T07:21:42;20.83;;;5.65;;
38089;SDS011;23904;52.322;10.232;2024-01-27T07:24:07;25.27;;;5.03;;
38089;SDS011;23904;52.322;10.232;2024-01-27T07:26:34;25.42;;;5.97;;
38089;SDS011;23904;52.322;10.232;2024-01-27T07:28:59;26.10;;;6.18;;
38089;SDS011;23904;52.322;10.232;2024-01-27T07:31:25;18.83;;;5.78;;
38089;SDS011;23904;52.322;10.232;2024-01-27T07:33:51;20.40;;;5.10;;
38089;SDS011;23904;52.322;10.232;2024-01-27T07:36:17;30.40;;;5.72;;
38089;SDS011;23904;52.322;10.232;2024-01-27T07:38:42;23.25;;;4.90;;
38089;SDS011;23904;52.322;10.232;2024-01-27T07:41:08;23.60;;;6.40;;
38089;SDS011;23904;52.322;10.232;2024-01-27T07:43:33;27.38;;;7.70;;
38089;SDS011;23904;52.322;10.232;2024-01-27T07:45:59;15.93;;;5.07;;
38089;SDS011;23904;52.322;10.232;2024-01-27T07:48:24;21.52;;;5.35;;
38089;SDS011;23904;52.322;10.232;2024-01-27T07:50:50;16.85;;;4.93;;
38089;SDS011;23904;52.322;10.232;2024-01-27T07:53:16;26.55;;;7.82;;
38089;SDS011;23904;52.322;10.232;2024-01-27T07:55:42;23.42;;;5.22;;
38089;SDS011;23904;52.322;10.232;2024-01-27T07:58:07;27.77;;;4.85;;
38089;SDS011;23904;52.322;10.232;2024-01-27T08:00:33;25.63;;;5.28;;
38089;SDS011;23904;52.322;10.232;2024-01-27T08:02:58;22.02;;;5.60;;
38089;SDS011;23904;52.322;10.232;2024-01-27T08:05:24;34.65;;;6.00;;
38089;SDS011;23904;52.322;10.232;2024-01-27T08:07:49;23.42;;;5.93;;
38089;SDS011;23904;52.322;10.232;2024-01-27T08:10:15;31.65;;;5.28;;
38089;SDS011;23904;52.322;10.232;2024-01-27T08:12:41;25.50;;;5.68;;
38089;SDS011;23904;52.322;10.232;2024-01-27T08:15:06;26.90;;;7.38;;
38089;SDS011;23904;52.322;10.232;2024-01-27T08:17:32;34.67;;;5.20;;
38089;SDS011;23904;52.322;10.232;2024-01-27T08:19:58;24.33;;;5.93;;
38089;SDS011;23904;52.322;10.232;2024-01-27T08:22:24;18.20;;;6.03;;
38089;SDS011;23904;52.322;10.232;2024-01-27T08:24:49;19.27;;;5.97;;
38089;SDS011;23904;52.322;10.232;2024-01-27T08:27:15;34.03;;;6.70;;
38089;SDS011;23904;52.322;10.232;2024-01-27T08:29:40;22.30;;;6.60;;
38089;SDS011;23904;52.322;10.232;2024-01-27T08:32:06;30.75;;;5.85;;
38089;SDS011;23904;52.322;10.232;2024-01-27T08:34:32;22.58;;;5.88;;
38089;SDS011;23904;52.322;10.232;2024-01-27T08:36:59;22.40;;;6.68;;
38089;SDS011;23904;52.322;10.232;2024-01-27T08:39:27;35.58;;;6.97;;
38089;SDS011;23904;52.322;10.232;2024-01-27T08:41:52;26.60;;;6.43;;
38089;SDS011;23904;52.322;10.232;2024-01-27T08:44:18;30.52;;;8.57;;
38089;SDS011;23904;52.322;10.232;2024-01-27T08:46:44;29.88;;;6.28;;
38089;SDS011;23904;52.322;10.232;2024-01-27T08:49:09;33.40;;;8.45;;
38089;SDS011;23904;52.322;10.232;2024-01-27T08:51:34;27.73;;;7.50;;
38089;SDS011;23904;52.322;10.232;2024-01-27T08:54:00;22.98;;;6.38;;
38089;SDS011;23904;52.322;10.232;2024-01-27T08:56:26;21.00;;;8.15;;
38089;SDS011;23904;52.322;10.232;2024-01-27T08:58:51;31.05;;;8.02;;
38089;SDS011;23904;52.322;10.232;2024-01-27T09:01:17;27.73;;;6.75;;
38089;SDS011;23904;52.322;10.232;2024-01-27T09:03:43;22.83;;;6.60;;
38089;SDS011;23904;52.322;10.232;2024-01-27T09:06:09;25.52;;;7.10;;
38089;SDS011;23904;52.322;10.232;2024-01-27T09:08:35;34.58;;;7.30;;
38089;SDS011;23904;52.322;10.232;2024-01-27T09:11:03;23.35;;;6.55;;
38089;SDS011;23904;52.322;10.232;2024-01-27T09:13:29;35.50;;;7.80;;
38089;SDS011;23904;52.322;10.232;2024-01-27T09:15:56;25.20;;;7.18;;
38089;SDS011;23904;52.322;10.232;2024-01-27T09:18:23;29.25;;;7.80;;
38089;SDS011;23904;52.322;10.232;2024-01-27T09:20:48;24.13;;;7.10;;
38089;SDS011;23904;52.322;10.232;2024-01-27T09:23:14;22.45;;;7.60;;
38089;SDS011;23904;52.322;10.232;2024-01-27T09:25:39;34.95;;;8.55;;
38089;SDS011;23904;52.322;10.232;2024-01-27T09:28:05;24.73;;;6.78;;
38089;SDS011;23904;52.322;10.232;2024-01-27T09:30:30;31.70;;;6.82;;
38089;SDS011;23904;52.322;10.232;2024-01-27T09:32:56;26.60;;;6.57;;
38089;SDS011;23904;52.322;10.232;2024-01-27T09:35:21;22.38;;;5.93;;
38089;SDS011;23904;52.322;10.232;2024-01-27T09:37:47;33.03;;;7.63;;
38089;SDS011;23904;52.322;10.232;2024-01-27T09:40:12;24.50;;;6.13;;
38089;SDS011;23904;52.322;10.232;2024-01-27T09:42:38;24.55;;;5.63;;
38089;SDS011;23904;52.322;10.232;2024-01-27T09:45:08;20.92;;;6.60;;
38089;SDS011;23904;52.322;10.232;2024-01-27T09:47:35;25.10;;;6.15;;
38089;SDS011;23904;52.322;10.232;2024-01-27T09:50:01;25.63;;;6.10;;
38089;SDS011;23904;52.322;10.232;2024-01-27T09:52:27;25.27;;;6.53;;
38089;SDS011;23904;52.322;10.232;2024-01-27T09:54:53;23.10;;;5.90;;
38089;SDS011;23904;52.322;10.232;2024-01-27T09:57:18;22.10;;;7.10;;
38089;SDS011;23904;52.322;10.232;2024-01-27T09:59:45;27.35;;;6.05;;
38089;SDS011;23904;52.322;10.232;2024-01-27T10:02:12;22.13;;;7.15;;
38089;SDS011;23904;52.322;10.232;2024-01-27T10:04:40;23.63;;;6.70;;
38089;SDS011;23904;52.322;10.232;2024-01-27T10:07:07;25.55;;;6.90;;
38089;SDS011;23904;52.322;10.232;2024-01-27T10:09:33;24.10;;;8.02;;
38089;SDS011;23904;52.322;10.232;2024-01-27T10:12:00;19.98;;;6.10;;
38089;SDS011;23904;52.322;10.232;2024-01-27T10:14:37;23.45;;;8.52;;
38089;SDS011;23904;52.322;10.232;2024-01-27T10:17:04;16.95;;;6.28;;
38089;SDS011;23904;52.322;10.232;2024-01-27T10:19:30;22.63;;;7.07;;
38089;SDS011;23904;52.322;10.232;2024-01-27T10:22:01;22.25;;;6.55;;
38089;SDS011;23904;52.322;10.232;2024-01-27T10:24:27;21.98;;;7.50;;
38089;SDS011;23904;52.322;10.232;2024-01-27T10:27:03;16.98;;;6.78;;
38089;SDS011;23904;52.322;10.232;2024-01-27T10:29:29;25.42;;;6.85;;
38089;SDS011;23904;52.322;10.232;2024-01-27T10:31:55;17.50;;;6.85;;
38089;SDS011;23904;52.322;10.232;2024-01-27T10:34:32;23.52;;;7.47;;
38089;SDS011;23904;52.322;10.232;2024-01-27T10:36:57;23.50;;;7.13;;
38089;SDS011;23904;52.322;10.232;2024-01-27T10:39:23;18.38;;;6.63;;
38089;SDS011;23904;52.322;10.232;2024-01-27T10:41:49;18.60;;;6.68;;
38089;SDS011;23904;52.322;10.232;2024-01-27T10:44:19;20.98;;;7.03;;
38089;SDS011;23904;52.322;10.232;2024-01-27T10:46:46;22.95;;;7.45;;
38089;SDS011;23904;52.322;10.232;2024-01-27T10:49:14;20.33;;;7.32;;
38089;SDS011;23904;52.322;10.232;2024-01-27T10:51:59;22.42;;;7.85;;
38089;SDS011;23904;52.322;10.232;2024-01-27T10:54:32;22.85;;;7.18;;
38089;SDS011;23904;52.322;10.232;2024-01-27T10:57:00;22.77;;;7.63;;
38089;SDS011;23904;52.322;10.232;2024-01-27T10:59:27;22.50;;;8.50;;
38089;SDS011;23904;52.322;10.232;2024-01-27T11:01:55;24.13;;;8.10;;
38089;SDS011;23904;52.322;10.232;2024-01-27T11:04:21;23.55;;;8.18;;
38089;SDS011;23904;52.322;10.232;2024-01-27T11:06:47;23.30;;;9.13;;
38089;SDS011;23904;52.322;10.232;2024-01-27T11:09:13;27.50;;;8.18;;
38089;SDS011;23904;52.322;10.232;2024-01-27T11:11:42;22.13;;;7.97;;
38089;SDS011;23904;52.322;10.232;2024-01-27T11:14:09;22.20;;;8.75;;
38089;SDS011;23904;52.322;10.232;2024-01-27T11:16:36;22.98;;;8.55;;
38089;SDS011;23904;52.322;10.232;2024-01-27T11:19:09;30.50;;;10.05;;
38089;SDS011;23904;52.322;10.232;2024-01-27T11:21:36;28.63;;;9.15;;
38089;SDS011;23904;52.322;10.232;2024-01-27T11:24:12;26.33;;;8.52;;
38089;SDS011;23904;52.322;10.232;2024-01-27T11:26:39;27.75;;;8.40;;
38089;SDS011;23904;52.322;10.232;2024-01-27T11:29:07;21.30;;;9.05;;
38089;SDS011;23904;52.322;10.232;2024-01-27T11:31:34;28.50;;;9.25;;
38089;SDS011;23904;52.322;10.232;2024-01-27T11:34:00;24.88;;;8.73;;
38089;SDS011;23904;52.322;10.232;2024-01-27T11:36:26;21.95;;;8.18;;
38089;SDS011;23904;52.322;10.232;2024-01-27T11:38:52;25.50;;;8.68;;
38089;SDS011;23904;52.322;10.232;2024-01-27T11:41:28;23.70;;;9.35;;
38089;SDS011;23904;52.322;10.232;2024-01-27T11:43:58;23.05;;;7.38;;
38089;SDS011;23904;52.322;10.232;2024-01-27T11:46:27;28.02;;;8.50;;
38089;SDS011;23904;52.322;10.232;2024-01-27T11:48:52;21.17;;;6.72;;
38089;SDS011;23904;52.322;10.232;2024-01-27T11:51:18;26.10;;;7.20;;
38089;SDS011;23904;52.322;10.232;2024-01-27T11:53:44;23.50;;;6.93;;
38089;SDS011;23904;52.322;10.232;2024-01-27T11:56:10;24.00;;;6.97;;
38089;SDS011;23904;52.322;10.232;2024-01-27T11:58:36;24.95;;;7.50;;
38089;SDS011;23904;52.322;10.232;2024-01-27T12:01:01;23.15;;;7.45;;
38089;SDS011;23904;52.322;10.232;2024-01-27T12:03:27;26.15;;;7.43;;
38089;SDS011;23904;52.322;10.232;2024-01-27T12:05:54;28.13;;;6.95;;
38089;SDS011;23904;52.322;10.232;2024-01-27T12:08:20;19.85;;;6.40;;
38089;SDS011;23904;52.322;10.232;2024-01-27T12:10:46;21.48;;;6.25;;
38089;SDS011;23904;52.322;10.232;2024-01-27T12:13:12;17.95;;;6.00;;
38089;SDS011;23904;52.322;10.232;2024-01-27T12:15:38;24.52;;;6.90;;
38089;SDS011;23904;52.322;10.232;2024-01-27T12:18:06;20.48;;;6.75;;
38089;SDS011;23904;52.322;10.232;2024-01-27T12:20:32;20.90;;;6.60;;
38089;SDS011;23904;52.322;10.232;2024-01-27T12:23:03;21.60;;;7.80;;
38089;SDS011;23904;52.322;10.232;2024-01-27T12:25:30;19.23;;;6.25;;
38089;SDS011;23904;52.322;10.232;2024-01-27T12:27:56;23.10;;;5.90;;
38089;SDS011;23904;52.322;10.232;2024-01-27T12:30:25;20.10;;;6.15;;
38089;SDS011;23904;52.322;10.232;2024-01-27T12:32:52;19.63;;;6.65;;
38089;SDS011;23904;52.322;10.232;2024-01-27T12:35:17;25.65;;;6.80;;
38089;SDS011;23904;52.322;10.232;2024-01-27T12:37:43;19.65;;;6.68;;
38089;SDS011;23904;52.322;10.232;2024-01-27T12:40:18;15.90;;;5.40;;
38089;SDS011;23904;52.322;10.232;2024-01-27T12:42:45;18.05;;;5.55;;
38089;SDS011;23904;52.322;10.232;2024-01-27T12:45:12;25.77;;;7.57;;
38089;SDS011;23904;52.322;10.232;2024-01-27T12:47:38;20.88;;;6.10;;
38089;SDS011;23904;52.322;10.232;2024-01-27T12:50:04;15.85;;;5.20;;
38089;SDS011;23904;52.322;10.232;2024-01-27T12:52:31;18.80;;;5.80;;
38089;SDS011;23904;52.322;10.232;2024-01-27T12:54:57;18.38;;;6.45;;
38089;SDS011;23904;52.322;10.232;2024-01-27T12:57:23;25.67;;;6.82;;
38089;SDS011;23904;52.322;10.232;2024-01-27T12:59:48;19.20;;;6.18;;
38089;SDS011;23904;52.322;10.232;2024-01-27T13:02:14;26.27;;;6.18;;
38089;SDS011;23904;52.322;10.232;2024-01-27T13:04:40;24.92;;;6.68;;
38089;SDS011;23904;52.322;10.232;2024-01-27T13:07:06;19.52;;;5.75;;
38089;SDS011;23904;52.322;10.232;2024-01-27T13:09:32;21.70;;;5.80;;
38089;SDS011;23904;52.322;10.232;2024-01-27T13:11:59;20.73;;;6.38;;
38089;SDS011;23904;52.322;10.232;2024-01-27T13:14:24;21.45;;;5.70;;
38089;SDS011;23904;52.322;10.232;2024-01-27T13:16:50;22.27;;;5.50;;
38089;SDS011;23904;52.322;10.232;2024-01-27T13:19:18;18.08;;;5.53;;
38089;SDS011;23904;52.322;10.232;2024-01-27T13:21:44;23.88;;;5.95;;
38089;SDS011;23904;52.322;10.232;2024-01-27T13:24:09;15.23;;;5.35;;
38089;SDS011;23904;52.322;10.232;2024-01-27T13:26:35;18.60;;;5.22;;
38089;SDS011;23904;52.322;10.232;2024-01-27T13:29:03;28.73;;;5.85;;
38089;SDS011;23904;52.322;10.232;2024-01-27T13:31:29;21.73;;;5.65;;
38089;SDS011;23904;52.322;10.232;2024-01-27T13:33:55;19.70;;;5.88;;
38089;SDS011;23904;52.322;10.232;2024-01-27T13:36:22;18.25;;;5.50;;
38089;SDS011;23904;52.322;10.232;2024-01-27T13:38:48;21.55;;;5.15;;
38089;SDS011;23904;52.322;10.232;2024-01-27T13:41:13;20.40;;;6.32;;
38089;SDS011;23904;52.322;10.232;2024-01-27T13:43:40;21.25;;;5.07;;
38089;SDS011;23904;52.322;10.232;2024-01-27T13:46:06;21.67;;;5.57;;
38089;SDS011;23904;52.322;10.232;2024-01-27T13:48:31;21.42;;;5.38;;
38089;SDS011;23904;52.322;10.232;2024-01-27T13:50:57;17.65;;;4.90;;
38089;SDS011;23904;52.322;10.232;2024-01-27T13:53:23;21.08;;;4.75;;
38089;SDS011;23904;52.322;10.232;2024-01-27T13:55:49;18.70;;;5.20;;
38089;SDS011;23904;52.322;10.232;2024-01-27T13:58:14;25.92;;;6.18;;
38089;SDS011;23904;52.322;10.232;2024-01-27T14:00:40;19.80;;;4.93;;
38089;SDS011;23904;52.322;10.232;2024-01-27T14:03:05;17.65;;;4.47;;
38089;SDS011;23904;52.322;10.232;2024-01-27T14:05:31;12.93;;;3.83;;
38089;SDS011;23904;52.322;10.232;2024-01-27T14:07:56;15.80;;;4.18;;
38089;SDS011;23904;52.322;10.232;2024-01-27T14:10:22;17.42;;;4.00;;
38089;SDS011;23904;52.322;10.232;2024-01-27T14:12:49;19.50;;;4.40;;
38089;SDS011;23904;52.322;10.232;2024-01-27T14:15:15;14.77;;;3.55;;
38089;SDS011;23904;52.322;10.232;2024-01-27T14:17:42;16.90;;;3.95;;